createdAt,value
2022-09-23T00:00:47.018Z,101328.22
2022-09-23T00:05:57.859Z,101332.38
2022-09-23T00:11:09.715Z,101332.25
2022-09-23T00:16:15.379Z,101335.56
2022-09-23T00:21:17.316Z,101332.84
2022-09-23T00:26:19.758Z,101321.94
2022-09-23T00:31:22.665Z,101318.16
2022-09-23T00:36:24.052Z,101315.84
2022-09-23T00:41:25.449Z,101303.97
2022-09-23T00:46:32.763Z,101303.69
2022-09-23T00:51:36.860Z,101297.97
2022-09-23T00:56:38.555Z,101290.34
2022-09-23T01:01:40.140Z,101298.78
2022-09-23T01:06:41.501Z,101284.06
2022-09-23T01:11:48.796Z,101284.19
2022-09-23T01:17:03.328Z,101276.13
2022-09-23T01:22:24.928Z,101267.66
2022-09-23T01:27:45.099Z,101263.31
2022-09-23T01:32:52.749Z,101265.47
2022-09-23T01:38:06.462Z,101261.25
2022-09-23T01:43:28.289Z,101265.75
2022-09-23T01:48:34.082Z,101269.31
2022-09-23T01:53:45.562Z,101271.91
2022-09-23T01:58:57.567Z,101270.63
2022-09-23T02:04:04.136Z,101268.13
2022-09-23T02:09:09.095Z,101276.34
2022-09-23T02:14:33.550Z,101272.41
2022-09-23T02:19:41.865Z,101269.97
2022-09-23T02:24:43.201Z,101261.84
2022-09-23T02:30:03.332Z,101262.94
2022-09-23T02:35:14.668Z,101252.34
2022-09-23T02:40:22.639Z,101251.81
2022-09-23T02:45:24.084Z,101255.50
2022-09-23T02:50:25.404Z,101253.72
2022-09-23T02:55:30.273Z,101243.66
2022-09-23T03:00:39.889Z,101242.03
2022-09-23T03:05:46.811Z,101235.88
2022-09-23T03:10:54.204Z,101234.16
2022-09-23T03:16:12.582Z,101228.22
2022-09-23T03:21:17.140Z,101221.03
2022-09-23T03:26:29.496Z,101219.38
2022-09-23T03:31:32.339Z,101213.16
2022-09-23T03:36:51.928Z,101214.94
2022-09-23T03:41:55.776Z,101206.25
2022-09-23T03:47:02.900Z,101208.44
2022-09-23T03:52:04.235Z,101203.56
2022-09-23T03:57:05.566Z,101205.34
2022-09-23T04:02:07.928Z,101207.25
2022-09-23T04:07:09.653Z,101199.91
2022-09-23T04:12:13.325Z,101192.16
2022-09-23T04:17:14.944Z,101199.28
2022-09-23T04:22:16.231Z,101204.13
2022-09-23T04:27:17.536Z,101201.19
2022-09-23T04:32:18.831Z,101184.94
2022-09-23T04:37:20.122Z,101183.63
2022-09-23T04:42:21.506Z,101185.00
2022-09-23T04:47:22.781Z,101176.56
2022-09-23T04:52:24.079Z,101184.09
2022-09-23T04:57:25.362Z,101185.09
2022-09-23T05:02:28.205Z,101175.94
2022-09-23T05:07:29.544Z,101177.88
2022-09-23T05:12:30.846Z,101179.41
2022-09-23T05:17:32.257Z,101176.72
2022-09-23T05:22:33.553Z,101190.63
2022-09-23T05:27:34.848Z,101179.69
2022-09-23T05:32:36.142Z,101179.22
2022-09-23T05:37:38.253Z,101178.91
2022-09-23T05:42:40.000Z,101184.84
2022-09-23T05:47:41.435Z,101176.25
2022-09-23T05:52:42.736Z,101176.66
2022-09-23T05:57:44.078Z,101170.47
2022-09-23T06:02:46.982Z,101175.44
2022-09-23T06:07:48.428Z,101180.03
2022-09-23T06:12:50.053Z,101173.31
2022-09-23T06:17:51.376Z,101168.22
2022-09-23T06:22:55.540Z,101171.63
2022-09-23T06:27:56.972Z,101165.63
2022-09-23T06:32:58.276Z,101163.50
2022-09-23T06:38:03.076Z,101174.66
2022-09-23T06:43:04.404Z,101173.00
2022-09-23T06:48:08.632Z,101180.34
2022-09-23T06:53:10.066Z,101174.47
2022-09-23T06:58:11.367Z,101175.22
2022-09-23T07:03:12.898Z,101176.31
2022-09-23T07:08:14.212Z,101174.34
2022-09-23T07:13:16.363Z,101172.34
2022-09-23T07:18:19.636Z,101170.31
2022-09-23T07:23:20.937Z,101172.03
2022-09-23T07:28:22.661Z,101182.50
2022-09-23T07:33:31.708Z,101170.03
2022-09-23T07:38:34.183Z,101176.84
2022-09-23T07:43:35.648Z,101166.47
2022-09-23T07:48:37.380Z,101171.94
2022-09-23T07:53:38.735Z,101165.00
2022-09-23T07:58:40.023Z,101166.31
2022-09-23T08:03:41.330Z,101166.94
2022-09-23T08:08:51.164Z,101168.31
2022-09-23T08:13:54.743Z,101164.31
2022-09-23T08:18:56.088Z,101169.66
2022-09-23T08:23:57.477Z,101163.50
2022-09-23T08:28:58.948Z,101167.63
2022-09-23T08:34:00.318Z,101144.56
2022-09-23T08:39:01.973Z,101149.72
2022-09-23T08:44:06.948Z,101144.31
2022-09-23T08:49:11.181Z,101138.69
2022-09-23T08:54:13.259Z,101148.75
2022-09-23T08:59:29.579Z,101145.63
2022-09-23T09:04:40.331Z,101137.50
2022-09-23T09:09:53.122Z,101137.13
2022-09-23T09:14:57.404Z,101120.84
2022-09-23T09:20:18.919Z,101123.00
2022-09-23T09:25:38.404Z,101114.94
2022-09-23T09:30:39.776Z,101108.28
2022-09-23T09:35:56.469Z,101113.06
2022-09-23T09:41:01.609Z,101104.41
2022-09-23T09:46:21.701Z,101098.25
2022-09-23T09:51:24.219Z,101098.84
2022-09-23T09:56:31.609Z,101092.94
2022-09-23T10:01:34.297Z,101086.59
2022-09-23T10:06:35.918Z,101085.91
2022-09-23T10:11:38.028Z,101075.19
2022-09-23T10:16:41.501Z,101064.34
2022-09-23T10:21:43.209Z,101075.66
2022-09-23T10:26:51.324Z,101069.44
2022-09-23T10:32:13.221Z,101071.41
2022-09-23T10:37:17.063Z,101074.06
2022-09-23T10:42:46.538Z,101063.31
2022-09-23T10:47:56.623Z,101056.59
2022-09-23T10:53:04.928Z,101060.13
2022-09-23T10:58:24.741Z,101048.19
2022-09-23T11:03:46.251Z,101052.50
2022-09-23T11:08:51.011Z,101042.88
2022-09-23T11:14:17.170Z,101046.78
2022-09-23T11:19:34.088Z,101035.63
2022-09-23T11:24:58.173Z,101033.69
2022-09-23T11:30:08.137Z,101023.28
2022-09-23T11:35:38.925Z,101025.50
2022-09-23T11:40:45.649Z,101012.78
2022-09-23T11:46:14.187Z,101008.75
2022-09-23T11:51:21.146Z,100998.56
2022-09-23T11:56:34.787Z,100987.69
2022-09-23T12:01:45.550Z,100991.53
2022-09-23T12:06:50.072Z,100973.88
2022-09-23T12:12:11.785Z,100980.00
2022-09-23T12:17:48.693Z,100980.59
2022-09-23T12:23:08.852Z,100971.56
2022-09-23T12:28:13.445Z,100961.88
2022-09-23T12:33:22.543Z,100960.00
2022-09-23T12:38:25.663Z,100943.47
2022-09-23T12:43:29.688Z,100940.88
2022-09-23T12:48:57.963Z,100936.16
2022-09-23T12:54:14.215Z,100940.38
2022-09-23T12:59:28.876Z,100935.91
2022-09-23T13:04:51.195Z,100926.97
2022-09-23T13:09:55.830Z,100922.66
2022-09-23T13:15:00.737Z,100918.81
2022-09-23T13:20:20.635Z,100915.28
2022-09-23T13:25:22.986Z,100911.09
2022-09-23T13:30:26.754Z,100908.97
2022-09-23T13:35:36.089Z,100905.25
2022-09-23T13:40:38.605Z,100901.84
2022-09-23T13:45:43.032Z,100893.75
2022-09-23T13:50:51.906Z,100895.81
2022-09-23T13:56:19.210Z,100892.16
2022-09-23T14:01:22.635Z,100889.16
2022-09-23T14:06:25.915Z,100885.06
2022-09-23T14:11:31.645Z,100874.94
2022-09-23T14:16:35.757Z,100871.03
2022-09-23T14:21:38.416Z,100858.13
2022-09-23T14:26:40.786Z,100855.19
2022-09-23T14:31:44.188Z,100846.22
2022-09-23T14:37:04.171Z,100849.25
2022-09-23T14:42:07.077Z,100843.47
2022-09-23T14:47:12.593Z,100838.31
2022-09-23T14:52:13.947Z,100835.09
2022-09-23T14:57:18.394Z,100827.56
2022-09-23T15:02:36.275Z,100822.75
2022-09-23T15:07:38.303Z,100821.00
2022-09-23T15:12:40.240Z,100812.44
2022-09-23T15:17:41.559Z,100811.22
2022-09-23T15:22:44.349Z,100804.13
2022-09-23T15:27:57.907Z,100809.97
2022-09-23T15:32:59.976Z,100802.22
2022-09-23T15:38:03.241Z,100801.03
2022-09-23T15:43:24.583Z,100811.72
2022-09-23T15:48:27.587Z,100812.75
2022-09-23T15:53:29.889Z,100825.00
2022-09-23T15:58:31.913Z,100831.84
2022-09-23T16:03:33.204Z,100825.28
2022-09-23T16:08:34.565Z,100825.63
2022-09-23T16:13:35.867Z,100827.69
2022-09-23T16:18:42.125Z,100833.94
2022-09-23T16:23:47.368Z,100831.81
2022-09-23T16:28:49.695Z,100819.06
2022-09-23T16:33:51.739Z,100820.94
2022-09-23T16:38:55.463Z,100817.06
2022-09-23T16:43:57.034Z,100820.38
2022-09-23T16:48:58.857Z,100824.75
2022-09-23T16:54:00.231Z,100828.84
2022-09-23T16:59:01.605Z,100843.34
2022-09-23T17:04:03.684Z,100836.97
2022-09-23T17:09:05.048Z,100835.91
2022-09-23T17:14:06.462Z,100824.47
2022-09-23T17:19:08.808Z,100816.41
2022-09-23T17:24:10.232Z,100824.94
2022-09-23T17:29:11.616Z,100814.84
2022-09-23T17:34:12.921Z,100823.50
2022-09-23T17:39:14.272Z,100831.28
2022-09-23T17:44:17.593Z,100813.25
2022-09-23T17:49:18.975Z,100804.84
2022-09-23T17:54:20.268Z,100814.63
2022-09-23T17:59:21.582Z,100824.72
2022-09-23T18:04:22.871Z,100838.25
2022-09-23T18:09:24.177Z,100833.63
2022-09-23T18:14:26.153Z,100834.69
2022-09-23T18:19:27.541Z,100837.38
2022-09-23T18:24:32.475Z,100848.53
2022-09-23T18:29:35.067Z,100847.53
2022-09-23T18:34:36.902Z,100848.13
2022-09-23T18:39:38.490Z,100843.91
2022-09-23T18:44:40.639Z,100843.69
2022-09-23T18:50:00.560Z,100837.69
2022-09-23T18:55:01.920Z,100842.38
2022-09-23T19:00:04.342Z,100834.53
2022-09-23T19:05:05.878Z,100838.41
2022-09-23T19:10:08.159Z,100845.47
2022-09-23T19:15:09.590Z,100843.06
2022-09-23T19:20:10.915Z,100834.41
2022-09-23T19:25:12.368Z,100847.91
2022-09-23T19:30:13.683Z,100842.47
2022-09-23T19:35:16.010Z,100839.81
2022-09-23T19:40:17.391Z,100834.75
2022-09-23T19:45:18.729Z,100843.41
2022-09-23T19:50:20.327Z,100833.34
2022-09-23T19:55:21.665Z,100832.28
2022-09-23T20:00:23.617Z,100826.25
2022-09-23T20:05:27.744Z,100825.81
2022-09-23T20:10:29.082Z,100828.59
2022-09-23T20:15:30.389Z,100830.75
2022-09-23T20:20:32.403Z,100841.03
2022-09-23T20:25:53.685Z,100831.94
2022-09-23T20:30:58.009Z,100823.25
2022-09-23T20:36:00.842Z,100829.03
2022-09-23T20:41:02.258Z,100839.28
2022-09-23T20:46:05.305Z,100834.84
2022-09-23T20:51:06.601Z,100826.56
2022-09-23T20:56:07.934Z,100828.72
2022-09-23T21:01:13.031Z,100823.47
2022-09-23T21:06:16.003Z,100826.81
2022-09-23T21:11:17.890Z,100830.19
2022-09-23T21:16:22.002Z,100822.47
2022-09-23T21:21:23.393Z,100827.69
2022-09-23T21:26:25.715Z,100828.56
2022-09-23T21:31:31.199Z,100826.91
2022-09-23T21:36:34.539Z,100818.44
2022-09-23T21:41:36.448Z,100820.78
2022-09-23T21:46:37.865Z,100827.13
2022-09-23T21:51:42.661Z,100830.72
2022-09-23T21:56:44.268Z,100824.28
2022-09-23T22:01:46.849Z,100823.03
2022-09-23T22:06:50.683Z,100828.88
2022-09-23T22:12:12.732Z,100821.84
2022-09-23T22:17:16.164Z,100828.97
2022-09-23T22:22:18.493Z,100820.25
2022-09-23T22:27:20.488Z,100830.09
2022-09-23T22:32:40.743Z,100827.22
2022-09-23T22:37:42.137Z,100826.19
2022-09-23T22:42:43.705Z,100824.81
2022-09-23T22:47:45.918Z,100819.38
2022-09-23T22:52:47.501Z,100817.47
2022-09-23T22:57:50.028Z,100822.44
2022-09-23T23:02:51.400Z,100827.28
2022-09-23T23:07:53.180Z,100836.09
2022-09-23T23:12:54.999Z,100832.31
2022-09-23T23:17:57.259Z,100819.28
2022-09-23T23:23:01.316Z,100815.31
2022-09-23T23:28:05.549Z,100805.16
2022-09-23T23:33:06.861Z,100807.06
2022-09-23T23:38:10.936Z,100804.66
2022-09-23T23:43:12.251Z,100800.72
2022-09-23T23:48:13.562Z,100801.69
2022-09-23T23:53:14.862Z,100796.50
2022-09-23T23:58:17.977Z,100809.38
